sensor_id;sensor_type;location;lat;lon;timestamp;temperature;humidity
20147;DHT22;10234;50.856;15.716;2022-09-01T00:01:47;9.60;99.90
20147;DHT22;10234;50.856;15.716;2022-09-01T00:04:17;9.60;99.90
20147;DHT22;10234;50.856;15.716;2022-09-01T00:06:45;9.60;99.90
20147;DHT22;10234;50.856;15.716;2022-09-01T00:09:14;9.60;99.90
20147;DHT22;10234;50.856;15.716;2022-09-01T00:11:51;9.80;99.90
20147;DHT22;10234;50.856;15.716;2022-09-01T00:14:20;9.50;99.90
20147;DHT22;10234;50.856;15.716;2022-09-01T00:16:47;9.50;99.90
20147;DHT22;10234;50.856;15.716;2022-09-01T00:21:43;9.40;99.90
20147;DHT22;10234;50.856;15.716;2022-09-01T00:24:12;9.70;99.90
20147;DHT22;10234;50.856;15.716;2022-09-01T00:26:39;9.40;99.90
20147;DHT22;10234;50.856;15.716;2022-09-01T00:29:07;9.30;99.90
20147;DHT22;10234;50.856;15.716;2022-09-01T00:34:02;9.40;99.90
20147;DHT22;10234;50.856;15.716;2022-09-01T00:36:29;9.40;99.90
20147;DHT22;10234;50.856;15.716;2022-09-01T00:38:56;9.30;99.90
20147;DHT22;10234;50.856;15.716;2022-09-01T00:41:26;9.30;99.90
20147;DHT22;10234;50.856;15.716;2022-09-01T00:43:55;9.30;99.90
20147;DHT22;10234;50.856;15.716;2022-09-01T00:46:28;9.30;99.90
20147;DHT22;10234;50.856;15.716;2022-09-01T00:48:59;9.30;99.90
20147;DHT22;10234;50.856;15.716;2022-09-01T00:51:27;9.00;99.90
20147;DHT22;10234;50.856;15.716;2022-09-01T00:53:56;9.20;99.90
20147;DHT22;10234;50.856;15.716;2022-09-01T00:56:24;9.20;99.90
20147;DHT22;10234;50.856;15.716;2022-09-01T00:58:52;9.20;99.90
20147;DHT22;10234;50.856;15.716;2022-09-01T01:01:19;9.20;99.90
20147;DHT22;10234;50.856;15.716;2022-09-01T01:03:47;9.10;99.90
20147;DHT22;10234;50.856;15.716;2022-09-01T01:06:15;9.10;99.90
20147;DHT22;10234;50.856;15.716;2022-09-01T01:08:46;9.10;99.90
20147;DHT22;10234;50.856;15.716;2022-09-01T01:11:25;9.10;99.90
20147;DHT22;10234;50.856;15.716;2022-09-01T01:13:55;9.10;99.90
20147;DHT22;10234;50.856;15.716;2022-09-01T01:16:24;9.20;99.90
20147;DHT22;10234;50.856;15.716;2022-09-01T01:18:53;9.00;99.90
20147;DHT22;10234;50.856;15.716;2022-09-01T01:21:25;9.00;99.90
20147;DHT22;10234;50.856;15.716;2022-09-01T01:24:21;9.20;99.90
20147;DHT22;10234;50.856;15.716;2022-09-01T01:26:48;9.10;99.90
20147;DHT22;10234;50.856;15.716;2022-09-01T01:29:16;9.10;99.90
20147;DHT22;10234;50.856;15.716;2022-09-01T01:31:43;9.00;99.90
20147;DHT22;10234;50.856;15.716;2022-09-01T01:34:12;8.90;99.90
20147;DHT22;10234;50.856;15.716;2022-09-01T01:39:09;9.00;99.90
20147;DHT22;10234;50.856;15.716;2022-09-01T01:41:39;9.00;99.90
20147;DHT22;10234;50.856;15.716;2022-09-01T01:44:11;8.90;99.90
20147;DHT22;10234;50.856;15.716;2022-09-01T01:46:41;8.80;99.90
20147;DHT22;10234;50.856;15.716;2022-09-01T01:49:09;8.70;99.90
20147;DHT22;10234;50.856;15.716;2022-09-01T01:51:38;8.80;99.90
20147;DHT22;10234;50.856;15.716;2022-09-01T01:54:06;8.50;99.90
20147;DHT22;10234;50.856;15.716;2022-09-01T01:56:33;8.70;99.90
20147;DHT22;10234;50.856;15.716;2022-09-01T01:59:06;8.70;99.90
20147;DHT22;10234;50.856;15.716;2022-09-01T02:01:36;8.70;99.90
20147;DHT22;10234;50.856;15.716;2022-09-01T02:04:03;8.60;99.90
20147;DHT22;10234;50.856;15.716;2022-09-01T02:06:33;8.70;99.90
20147;DHT22;10234;50.856;15.716;2022-09-01T02:09:00;8.60;99.90
20147;DHT22;10234;50.856;15.716;2022-09-01T02:11:28;8.70;99.90
20147;DHT22;10234;50.856;15.716;2022-09-01T02:13:58;8.60;99.90
20147;DHT22;10234;50.856;15.716;2022-09-01T02:16:30;8.40;99.90
20147;DHT22;10234;50.856;15.716;2022-09-01T02:18:58;8.50;99.90
20147;DHT22;10234;50.856;15.716;2022-09-01T02:21:25;8.50;99.90
20147;DHT22;10234;50.856;15.716;2022-09-01T02:23:54;8.40;99.90
20147;DHT22;10234;50.856;15.716;2022-09-01T02:26:24;8.40;99.90
20147;DHT22;10234;50.856;15.716;2022-09-01T02:28:56;9.00;99.90
20147;DHT22;10234;50.856;15.716;2022-09-01T02:31:27;8.50;99.90
20147;DHT22;10234;50.856;15.716;2022-09-01T02:33:56;8.50;99.90
20147;DHT22;10234;50.856;15.716;2022-09-01T02:36:24;8.50;99.90
20147;DHT22;10234;50.856;15.716;2022-09-01T02:38:52;8.50;99.90
20147;DHT22;10234;50.856;15.716;2022-09-01T02:41:19;8.50;99.90
20147;DHT22;10234;50.856;15.716;2022-09-01T02:43:48;8.30;99.90
20147;DHT22;10234;50.856;15.716;2022-09-01T02:46:16;8.80;99.90
20147;DHT22;10234;50.856;15.716;2022-09-01T02:48:49;8.50;99.90
20147;DHT22;10234;50.856;15.716;2022-09-01T02:51:18;8.50;99.90
20147;DHT22;10234;50.856;15.716;2022-09-01T02:53:46;8.50;99.90
20147;DHT22;10234;50.856;15.716;2022-09-01T02:56:18;8.20;99.90
20147;DHT22;10234;50.856;15.716;2022-09-01T02:58:49;8.40;99.90
20147;DHT22;10234;50.856;15.716;2022-09-01T03:01:19;8.30;99.90
20147;DHT22;10234;50.856;15.716;2022-09-01T03:03:53;8.30;99.90
20147;DHT22;10234;50.856;15.716;2022-09-01T03:06:22;8.30;99.90
20147;DHT22;10234;50.856;15.716;2022-09-01T03:08:50;8.30;99.90
20147;DHT22;10234;50.856;15.716;2022-09-01T03:11:17;8.30;99.90
20147;DHT22;10234;50.856;15.716;2022-09-01T03:13:45;8.50;99.90
20147;DHT22;10234;50.856;15.716;2022-09-01T03:16:12;8.30;99.90
20147;DHT22;10234;50.856;15.716;2022-09-01T03:18:39;8.20;99.90
20147;DHT22;10234;50.856;15.716;2022-09-01T03:21:09;8.20;99.90
20147;DHT22;10234;50.856;15.716;2022-09-01T03:23:39;8.10;99.90
20147;DHT22;10234;50.856;15.716;2022-09-01T03:26:06;8.20;99.90
20147;DHT22;10234;50.856;15.716;2022-09-01T03:28:33;8.50;99.90
20147;DHT22;10234;50.856;15.716;2022-09-01T03:31:02;8.60;99.90
20147;DHT22;10234;50.856;15.716;2022-09-01T03:33:30;8.30;99.90
20147;DHT22;10234;50.856;15.716;2022-09-01T03:38:27;8.30;99.90
20147;DHT22;10234;50.856;15.716;2022-09-01T03:40:57;8.20;99.90
20147;DHT22;10234;50.856;15.716;2022-09-01T03:43:27;8.20;99.90
20147;DHT22;10234;50.856;15.716;2022-09-01T03:45:54;8.60;99.90
20147;DHT22;10234;50.856;15.716;2022-09-01T03:48:22;8.20;99.90
20147;DHT22;10234;50.856;15.716;2022-09-01T03:50:53;8.60;99.90
20147;DHT22;10234;50.856;15.716;2022-09-01T03:53:22;8.30;99.90
20147;DHT22;10234;50.856;15.716;2022-09-01T03:55:53;8.30;99.90
20147;DHT22;10234;50.856;15.716;2022-09-01T03:58:23;8.30;99.90
20147;DHT22;10234;50.856;15.716;2022-09-01T04:00:52;8.40;99.90
20147;DHT22;10234;50.856;15.716;2022-09-01T04:03:21;8.40;99.90
20147;DHT22;10234;50.856;15.716;2022-09-01T04:05:49;8.30;99.90
20147;DHT22;10234;50.856;15.716;2022-09-01T04:08:17;8.50;99.90
20147;DHT22;10234;50.856;15.716;2022-09-01T04:10:48;8.50;99.90
20147;DHT22;10234;50.856;15.716;2022-09-01T04:13:19;8.60;99.90
20147;DHT22;10234;50.856;15.716;2022-09-01T04:15:47;8.60;99.90
20147;DHT22;10234;50.856;15.716;2022-09-01T04:18:15;8.50;99.90
20147;DHT22;10234;50.856;15.716;2022-09-01T04:20:49;8.60;99.90
20147;DHT22;10234;50.856;15.716;2022-09-01T04:23:17;8.70;99.90
20147;DHT22;10234;50.856;15.716;2022-09-01T04:25:47;8.70;99.90
20147;DHT22;10234;50.856;15.716;2022-09-01T04:28:17;8.70;99.90
20147;DHT22;10234;50.856;15.716;2022-09-01T04:30:50;9.10;99.90
20147;DHT22;10234;50.856;15.716;2022-09-01T04:33:20;8.80;99.90
20147;DHT22;10234;50.856;15.716;2022-09-01T04:35:48;8.80;99.90
20147;DHT22;10234;50.856;15.716;2022-09-01T04:38:22;8.90;99.90
20147;DHT22;10234;50.856;15.716;2022-09-01T04:40:49;8.90;99.90
20147;DHT22;10234;50.856;15.716;2022-09-01T04:43:17;8.80;99.90
20147;DHT22;10234;50.856;15.716;2022-09-01T04:45:46;9.00;99.90
20147;DHT22;10234;50.856;15.716;2022-09-01T04:48:17;9.00;99.90
20147;DHT22;10234;50.856;15.716;2022-09-01T04:50:45;9.10;99.90
20147;DHT22;10234;50.856;15.716;2022-09-01T04:53:14;9.10;99.90
20147;DHT22;10234;50.856;15.716;2022-09-01T04:55:42;9.50;99.90
20147;DHT22;10234;50.856;15.716;2022-09-01T04:58:09;9.20;99.90
20147;DHT22;10234;50.856;15.716;2022-09-01T05:00:39;9.30;99.90
20147;DHT22;10234;50.856;15.716;2022-09-01T05:03:06;9.30;99.90
20147;DHT22;10234;50.856;15.716;2022-09-01T05:05:39;9.40;99.90
20147;DHT22;10234;50.856;15.716;2022-09-01T05:08:09;9.40;99.90
20147;DHT22;10234;50.856;15.716;2022-09-01T05:10:40;9.50;99.90
20147;DHT22;10234;50.856;15.716;2022-09-01T05:13:08;9.50;99.90
20147;DHT22;10234;50.856;15.716;2022-09-01T05:15:39;9.60;99.90
20147;DHT22;10234;50.856;15.716;2022-09-01T05:18:12;10.00;99.90
20147;DHT22;10234;50.856;15.716;2022-09-01T05:20:41;9.80;99.90
20147;DHT22;10234;50.856;15.716;2022-09-01T05:23:09;9.90;99.90
20147;DHT22;10234;50.856;15.716;2022-09-01T05:25:42;10.10;99.90
20147;DHT22;10234;50.856;15.716;2022-09-01T05:28:09;10.20;99.90
20147;DHT22;10234;50.856;15.716;2022-09-01T05:30:39;10.20;99.90
20147;DHT22;10234;50.856;15.716;2022-09-01T05:33:08;10.50;99.90
20147;DHT22;10234;50.856;15.716;2022-09-01T05:35:37;10.30;99.90
20147;DHT22;10234;50.856;15.716;2022-09-01T05:38:05;10.70;99.90
20147;DHT22;10234;50.856;15.716;2022-09-01T05:40:35;11.00;99.90
20147;DHT22;10234;50.856;15.716;2022-09-01T05:43:07;11.10;99.90
20147;DHT22;10234;50.856;15.716;2022-09-01T05:45:39;11.10;99.90
20147;DHT22;10234;50.856;15.716;2022-09-01T05:48:09;11.30;99.90
20147;DHT22;10234;50.856;15.716;2022-09-01T05:50:38;11.50;99.90
20147;DHT22;10234;50.856;15.716;2022-09-01T05:53:08;11.70;99.90
20147;DHT22;10234;50.856;15.716;2022-09-01T05:55:41;11.70;99.90
20147;DHT22;10234;50.856;15.716;2022-09-01T05:58:08;11.80;99.90
20147;DHT22;10234;50.856;15.716;2022-09-01T06:00:40;11.90;99.90
20147;DHT22;10234;50.856;15.716;2022-09-01T06:03:08;12.10;99.90
20147;DHT22;10234;50.856;15.716;2022-09-01T06:05:36;12.20;99.90
20147;DHT22;10234;50.856;15.716;2022-09-01T06:08:05;12.30;99.90
20147;DHT22;10234;50.856;15.716;2022-09-01T06:10:32;12.50;99.90
20147;DHT22;10234;50.856;15.716;2022-09-01T06:13:00;12.60;99.90
20147;DHT22;10234;50.856;15.716;2022-09-01T06:15:27;12.60;99.90
20147;DHT22;10234;50.856;15.716;2022-09-01T06:17:56;12.90;99.90
20147;DHT22;10234;50.856;15.716;2022-09-01T06:20:23;13.00;99.90
20147;DHT22;10234;50.856;15.716;2022-09-01T06:22:51;13.10;99.90
20147;DHT22;10234;50.856;15.716;2022-09-01T06:25:18;13.20;99.90
20147;DHT22;10234;50.856;15.716;2022-09-01T06:27:45;13.50;99.90
20147;DHT22;10234;50.856;15.716;2022-09-01T06:30:14;13.70;99.90
20147;DHT22;10234;50.856;15.716;2022-09-01T06:32:45;13.90;99.90
20147;DHT22;10234;50.856;15.716;2022-09-01T06:35:15;14.10;99.90
20147;DHT22;10234;50.856;15.716;2022-09-01T06:37:43;14.40;99.90
20147;DHT22;10234;50.856;15.716;2022-09-01T06:40:12;14.50;99.90
20147;DHT22;10234;50.856;15.716;2022-09-01T06:42:43;14.60;99.90
20147;DHT22;10234;50.856;15.716;2022-09-01T06:45:12;14.80;99.90
20147;DHT22;10234;50.856;15.716;2022-09-01T06:47:40;14.80;99.90
20147;DHT22;10234;50.856;15.716;2022-09-01T06:50:08;14.80;99.90
20147;DHT22;10234;50.856;15.716;2022-09-01T06:52:36;14.80;99.90
20147;DHT22;10234;50.856;15.716;2022-09-01T06:55:05;14.90;99.90
20147;DHT22;10234;50.856;15.716;2022-09-01T06:57:32;14.90;99.90
20147;DHT22;10234;50.856;15.716;2022-09-01T07:00:04;14.80;99.90
20147;DHT22;10234;50.856;15.716;2022-09-01T07:02:42;14.80;99.90
20147;DHT22;10234;50.856;15.716;2022-09-01T07:05:10;15.30;99.90
20147;DHT22;10234;50.856;15.716;2022-09-01T07:07:38;15.60;99.90
20147;DHT22;10234;50.856;15.716;2022-09-01T07:10:05;16.00;99.90
20147;DHT22;10234;50.856;15.716;2022-09-01T07:12:32;16.30;99.90
20147;DHT22;10234;50.856;15.716;2022-09-01T07:14:59;16.50;99.90
20147;DHT22;10234;50.856;15.716;2022-09-01T07:17:26;16.60;99.90
20147;DHT22;10234;50.856;15.716;2022-09-01T07:19:55;16.90;99.90
20147;DHT22;10234;50.856;15.716;2022-09-01T07:22:22;17.90;99.90
20147;DHT22;10234;50.856;15.716;2022-09-01T07:24:50;17.90;99.90
20147;DHT22;10234;50.856;15.716;2022-09-01T07:27:22;18.40;99.90
20147;DHT22;10234;50.856;15.716;2022-09-01T07:29:53;18.80;99.90
20147;DHT22;10234;50.856;15.716;2022-09-01T07:32:20;18.80;99.90
20147;DHT22;10234;50.856;15.716;2022-09-01T07:34:47;19.00;99.90
20147;DHT22;10234;50.856;15.716;2022-09-01T07:37:14;19.50;99.90
20147;DHT22;10234;50.856;15.716;2022-09-01T07:39:47;20.00;99.90
20147;DHT22;10234;50.856;15.716;2022-09-01T07:42:17;20.50;99.90
20147;DHT22;10234;50.856;15.716;2022-09-01T07:44:44;21.40;99.90
20147;DHT22;10234;50.856;15.716;2022-09-01T07:47:11;21.30;99.90
20147;DHT22;10234;50.856;15.716;2022-09-01T07:49:40;21.50;99.90
20147;DHT22;10234;50.856;15.716;2022-09-01T07:52:07;21.80;99.90
20147;DHT22;10234;50.856;15.716;2022-09-01T07:54:34;21.80;99.90
20147;DHT22;10234;50.856;15.716;2022-09-01T07:57:02;22.00;99.90
20147;DHT22;10234;50.856;15.716;2022-09-01T07:59:30;22.90;99.90
20147;DHT22;10234;50.856;15.716;2022-09-01T08:01:58;24.70;99.90
20147;DHT22;10234;50.856;15.716;2022-09-01T08:04:28;25.00;95.10
20147;DHT22;10234;50.856;15.716;2022-09-01T08:06:56;25.00;96.10
20147;DHT22;10234;50.856;15.716;2022-09-01T08:09:23;25.00;95.30
20147;DHT22;10234;50.856;15.716;2022-09-01T08:11:50;24.40;96.70
20147;DHT22;10234;50.856;15.716;2022-09-01T08:14:16;23.80;99.90
20147;DHT22;10234;50.856;15.716;2022-09-01T08:16:45;23.10;99.90
20147;DHT22;10234;50.856;15.716;2022-09-01T08:19:11;24.20;98.20
20147;DHT22;10234;50.856;15.716;2022-09-01T08:21:38;25.80;95.20
20147;DHT22;10234;50.856;15.716;2022-09-01T08:24:05;26.60;89.30
20147;DHT22;10234;50.856;15.716;2022-09-01T08:26:32;25.70;85.20
20147;DHT22;10234;50.856;15.716;2022-09-01T08:31:26;25.90;91.30
20147;DHT22;10234;50.856;15.716;2022-09-01T08:33:54;27.70;85.20
20147;DHT22;10234;50.856;15.716;2022-09-01T08:36:21;29.30;73.90
20147;DHT22;10234;50.856;15.716;2022-09-01T08:38:48;30.20;60.40
20147;DHT22;10234;50.856;15.716;2022-09-01T08:41:18;31.10;61.40
20147;DHT22;10234;50.856;15.716;2022-09-01T08:43:56;31.90;58.00
20147;DHT22;10234;50.856;15.716;2022-09-01T08:46:27;32.00;54.80
20147;DHT22;10234;50.856;15.716;2022-09-01T08:48:57;32.90;54.10
20147;DHT22;10234;50.856;15.716;2022-09-01T08:51:31;32.90;52.70
20147;DHT22;10234;50.856;15.716;2022-09-01T08:54:03;32.20;52.60
20147;DHT22;10234;50.856;15.716;2022-09-01T08:56:32;31.10;53.20
20147;DHT22;10234;50.856;15.716;2022-09-01T08:59:00;29.80;56.50
20147;DHT22;10234;50.856;15.716;2022-09-01T09:01:35;28.30;58.50
20147;DHT22;10234;50.856;15.716;2022-09-01T09:04:18;27.60;62.80
20147;DHT22;10234;50.856;15.716;2022-09-01T09:06:54;29.60;59.10
20147;DHT22;10234;50.856;15.716;2022-09-01T09:09:32;31.70;56.40
20147;DHT22;10234;50.856;15.716;2022-09-01T09:12:22;32.40;51.70
20147;DHT22;10234;50.856;15.716;2022-09-01T09:14:58;31.50;53.00
20147;DHT22;10234;50.856;15.716;2022-09-01T09:17:32;32.80;55.40
20147;DHT22;10234;50.856;15.716;2022-09-01T09:20:02;34.20;51.50
20147;DHT22;10234;50.856;15.716;2022-09-01T09:22:29;35.00;48.60
20147;DHT22;10234;50.856;15.716;2022-09-01T09:25:02;33.40;48.00
20147;DHT22;10234;50.856;15.716;2022-09-01T09:27:32;30.70;49.10
20147;DHT22;10234;50.856;15.716;2022-09-01T09:30:01;28.30;52.00
20147;DHT22;10234;50.856;15.716;2022-09-01T09:32:43;26.50;55.30
20147;DHT22;10234;50.856;15.716;2022-09-01T09:35:26;25.20;57.50
20147;DHT22;10234;50.856;15.716;2022-09-01T09:37:54;23.20;61.00
20147;DHT22;10234;50.856;15.716;2022-09-01T09:40:22;23.30;61.80
20147;DHT22;10234;50.856;15.716;2022-09-01T09:43:03;22.70;62.50
20147;DHT22;10234;50.856;15.716;2022-09-01T09:45:32;22.80;65.80
20147;DHT22;10234;50.856;15.716;2022-09-01T09:48:02;23.80;62.50
20147;DHT22;10234;50.856;15.716;2022-09-01T09:50:33;23.30;62.40
20147;DHT22;10234;50.856;15.716;2022-09-01T09:53:12;22.50;63.50
20147;DHT22;10234;50.856;15.716;2022-09-01T09:55:57;21.80;66.20
20147;DHT22;10234;50.856;15.716;2022-09-01T09:58:27;21.30;66.50
20147;DHT22;10234;50.856;15.716;2022-09-01T10:01:04;21.00;66.20
20147;DHT22;10234;50.856;15.716;2022-09-01T10:03:36;20.70;67.30
20147;DHT22;10234;50.856;15.716;2022-09-01T10:06:09;20.70;69.60
20147;DHT22;10234;50.856;15.716;2022-09-01T10:08:39;20.80;71.30
20147;DHT22;10234;50.856;15.716;2022-09-01T10:11:11;21.10;71.70
20147;DHT22;10234;50.856;15.716;2022-09-01T10:13:51;21.00;87.90
20147;DHT22;10234;50.856;15.716;2022-09-01T10:16:24;21.00;69.50
20147;DHT22;10234;50.856;15.716;2022-09-01T10:18:52;20.90;71.70
20147;DHT22;10234;50.856;15.716;2022-09-01T10:21:27;20.80;72.20
20147;DHT22;10234;50.856;15.716;2022-09-01T10:23:57;20.60;76.10
20147;DHT22;10234;50.856;15.716;2022-09-01T10:26:29;20.60;76.40
20147;DHT22;10234;50.856;15.716;2022-09-01T10:29:01;20.70;78.40
20147;DHT22;10234;50.856;15.716;2022-09-01T10:31:31;21.30;84.90
20147;DHT22;10234;50.856;15.716;2022-09-01T10:34:00;23.90;85.50
20147;DHT22;10234;50.856;15.716;2022-09-01T10:36:30;25.70;72.10
20147;DHT22;10234;50.856;15.716;2022-09-01T10:38:57;25.40;65.60
20147;DHT22;10234;50.856;15.716;2022-09-01T10:41:44;24.10;64.80
20147;DHT22;10234;50.856;15.716;2022-09-01T10:44:20;22.90;70.90
20147;DHT22;10234;50.856;15.716;2022-09-01T10:46:49;22.20;75.60
20147;DHT22;10234;50.856;15.716;2022-09-01T10:49:57;21.70;78.30
20147;DHT22;10234;50.856;15.716;2022-09-01T10:52:53;21.30;79.60
20147;DHT22;10234;50.856;15.716;2022-09-01T10:55:23;21.20;79.80
20147;DHT22;10234;50.856;15.716;2022-09-01T10:57:57;22.30;75.60
20147;DHT22;10234;50.856;15.716;2022-09-01T11:01:00;22.30;72.20
20147;DHT22;10234;50.856;15.716;2022-09-01T11:03:54;21.90;74.50
20147;DHT22;10234;50.856;15.716;2022-09-01T11:06:41;21.20;73.00
20147;DHT22;10234;50.856;15.716;2022-09-01T11:09:22;20.70;77.30
20147;DHT22;10234;50.856;15.716;2022-09-01T11:14:56;20.10;81.60
20147;DHT22;10234;50.856;15.716;2022-09-01T11:17:26;19.80;81.30
20147;DHT22;10234;50.856;15.716;2022-09-01T11:20:02;19.60;80.90
20147;DHT22;10234;50.856;15.716;2022-09-01T11:22:36;19.40;82.40
20147;DHT22;10234;50.856;15.716;2022-09-01T11:31:02;19.00;88.70
20147;DHT22;10234;50.856;15.716;2022-09-01T11:33:49;18.90;91.70
20147;DHT22;10234;50.856;15.716;2022-09-01T11:36:26;18.80;92.40
20147;DHT22;10234;50.856;15.716;2022-09-01T11:39:04;18.80;95.30
20147;DHT22;10234;50.856;15.716;2022-09-01T11:41:42;18.90;95.10
20147;DHT22;10234;50.856;15.716;2022-09-01T11:44:15;19.50;94.00
20147;DHT22;10234;50.856;15.716;2022-09-01T11:46:44;18.90;96.50
20147;DHT22;10234;50.856;15.716;2022-09-01T11:49:25;19.00;96.80
20147;DHT22;10234;50.856;15.716;2022-09-01T11:51:53;19.10;99.70
20147;DHT22;10234;50.856;15.716;2022-09-01T11:54:22;19.20;99.90
20147;DHT22;10234;50.856;15.716;2022-09-01T11:56:50;19.30;98.00
20147;DHT22;10234;50.856;15.716;2022-09-01T11:59:30;19.10;98.00
20147;DHT22;10234;50.856;15.716;2022-09-01T12:01:57;19.00;98.70
20147;DHT22;10234;50.856;15.716;2022-09-01T12:04:25;19.10;97.70
20147;DHT22;10234;50.856;15.716;2022-09-01T12:06:58;19.20;94.50
20147;DHT22;10234;50.856;15.716;2022-09-01T12:09:34;19.40;97.70
20147;DHT22;10234;50.856;15.716;2022-09-01T12:12:04;19.90;99.90
20147;DHT22;10234;50.856;15.716;2022-09-01T12:14:31;20.50;99.90
20147;DHT22;10234;50.856;15.716;2022-09-01T12:17:00;20.60;99.90
20147;DHT22;10234;50.856;15.716;2022-09-01T12:19:29;20.30;97.80
20147;DHT22;10234;50.856;15.716;2022-09-01T12:21:59;19.80;98.00
20147;DHT22;10234;50.856;15.716;2022-09-01T12:24:28;19.50;96.60
20147;DHT22;10234;50.856;15.716;2022-09-01T12:26:57;19.30;99.10
20147;DHT22;10234;50.856;15.716;2022-09-01T12:29:27;18.90;99.90
20147;DHT22;10234;50.856;15.716;2022-09-01T12:31:56;18.50;99.90
20147;DHT22;10234;50.856;15.716;2022-09-01T12:34:25;18.50;99.90
20147;DHT22;10234;50.856;15.716;2022-09-01T12:37:05;18.30;99.90
20147;DHT22;10234;50.856;15.716;2022-09-01T12:39:34;18.30;99.90
20147;DHT22;10234;50.856;15.716;2022-09-01T12:42:05;18.50;99.90
20147;DHT22;10234;50.856;15.716;2022-09-01T12:44:43;18.30;99.90
20147;DHT22;10234;50.856;15.716;2022-09-01T12:47:13;18.40;99.90
20147;DHT22;10234;50.856;15.716;2022-09-01T12:49:41;18.40;99.90
20147;DHT22;10234;50.856;15.716;2022-09-01T12:52:12;18.50;99.90
20147;DHT22;10234;50.856;15.716;2022-09-01T12:57:19;18.80;99.90
20147;DHT22;10234;50.856;15.716;2022-09-01T13:00:07;18.90;99.90
20147;DHT22;10234;50.856;15.716;2022-09-01T13:02:35;19.10;99.90
20147;DHT22;10234;50.856;15.716;2022-09-01T13:05:25;19.10;99.90
20147;DHT22;10234;50.856;15.716;2022-09-01T13:07:53;19.20;99.90
20147;DHT22;10234;50.856;15.716;2022-09-01T13:10:21;19.30;99.90
20147;DHT22;10234;50.856;15.716;2022-09-01T13:12:50;19.20;99.90
20147;DHT22;10234;50.856;15.716;2022-09-01T13:15:18;19.20;99.90
20147;DHT22;10234;50.856;15.716;2022-09-01T13:17:45;19.00;99.90
20147;DHT22;10234;50.856;15.716;2022-09-01T13:20:12;19.10;99.90
20147;DHT22;10234;50.856;15.716;2022-09-01T13:22:40;19.10;99.90
20147;DHT22;10234;50.856;15.716;2022-09-01T13:25:09;19.30;99.90
20147;DHT22;10234;50.856;15.716;2022-09-01T13:27:38;19.20;99.90
20147;DHT22;10234;50.856;15.716;2022-09-01T13:30:07;19.30;99.60
20147;DHT22;10234;50.856;15.716;2022-09-01T13:32:36;19.30;99.90
20147;DHT22;10234;50.856;15.716;2022-09-01T13:35:04;19.20;99.90
20147;DHT22;10234;50.856;15.716;2022-09-01T13:37:31;19.20;99.90
20147;DHT22;10234;50.856;15.716;2022-09-01T13:39:58;19.20;99.90
20147;DHT22;10234;50.856;15.716;2022-09-01T13:42:25;19.00;99.90
20147;DHT22;10234;50.856;15.716;2022-09-01T13:44:52;19.20;99.90
20147;DHT22;10234;50.856;15.716;2022-09-01T13:47:18;19.10;99.90
20147;DHT22;10234;50.856;15.716;2022-09-01T13:49:47;18.90;99.90
20147;DHT22;10234;50.856;15.716;2022-09-01T13:52:14;19.10;99.90
20147;DHT22;10234;50.856;15.716;2022-09-01T13:54:40;19.00;99.90
20147;DHT22;10234;50.856;15.716;2022-09-01T13:57:08;19.10;99.90
20147;DHT22;10234;50.856;15.716;2022-09-01T13:59:36;19.10;99.90
20147;DHT22;10234;50.856;15.716;2022-09-01T14:02:03;19.00;99.90
20147;DHT22;10234;50.856;15.716;2022-09-01T14:04:30;19.10;99.90
20147;DHT22;10234;50.856;15.716;2022-09-01T14:06:58;18.90;99.90
20147;DHT22;10234;50.856;15.716;2022-09-01T14:14:20;19.10;99.90
20147;DHT22;10234;50.856;15.716;2022-09-01T14:19:14;19.00;99.90
20147;DHT22;10234;50.856;15.716;2022-09-01T14:21:41;19.10;99.90
20147;DHT22;10234;50.856;15.716;2022-09-01T14:24:10;19.10;99.90
20147;DHT22;10234;50.856;15.716;2022-09-01T14:26:36;19.00;99.90
20147;DHT22;10234;50.856;15.716;2022-09-01T14:29:03;18.70;99.90
20147;DHT22;10234;50.856;15.716;2022-09-01T14:33:58;18.80;99.90
20147;DHT22;10234;50.856;15.716;2022-09-01T14:36:25;18.80;99.90
20147;DHT22;10234;50.856;15.716;2022-09-01T14:38:53;18.90;99.90
20147;DHT22;10234;50.856;15.716;2022-09-01T14:41:22;18.50;99.90
20147;DHT22;10234;50.856;15.716;2022-09-01T14:43:50;18.40;99.90
20147;DHT22;10234;50.856;15.716;2022-09-01T14:46:18;18.40;99.90
20147;DHT22;10234;50.856;15.716;2022-09-01T14:48:46;18.20;99.90
20147;DHT22;10234;50.856;15.716;2022-09-01T14:51:19;17.80;99.90
20147;DHT22;10234;50.856;15.716;2022-09-01T14:53:47;17.80;99.90
20147;DHT22;10234;50.856;15.716;2022-09-01T14:56:14;17.80;99.90
20147;DHT22;10234;50.856;15.716;2022-09-01T14:58:44;17.40;99.90
20147;DHT22;10234;50.856;15.716;2022-09-01T15:01:13;16.90;99.90
20147;DHT22;10234;50.856;15.716;2022-09-01T15:03:40;17.10;99.90
20147;DHT22;10234;50.856;15.716;2022-09-01T15:06:10;17.00;99.90
20147;DHT22;10234;50.856;15.716;2022-09-01T15:11:07;16.80;99.90
20147;DHT22;10234;50.856;15.716;2022-09-01T15:13:34;16.70;99.90
20147;DHT22;10234;50.856;15.716;2022-09-01T15:16:03;16.80;99.90
20147;DHT22;10234;50.856;15.716;2022-09-01T15:18:30;16.60;99.90
20147;DHT22;10234;50.856;15.716;2022-09-01T15:20:57;16.60;99.90
20147;DHT22;10234;50.856;15.716;2022-09-01T15:23:25;16.50;99.90
20147;DHT22;10234;50.856;15.716;2022-09-01T15:25:53;16.50;99.90
20147;DHT22;10234;50.856;15.716;2022-09-01T15:28:20;16.40;99.90
20147;DHT22;10234;50.856;15.716;2022-09-01T15:30:48;16.30;99.90
20147;DHT22;10234;50.856;15.716;2022-09-01T15:33:17;16.20;99.90
20147;DHT22;10234;50.856;15.716;2022-09-01T15:35:44;16.20;99.90
20147;DHT22;10234;50.856;15.716;2022-09-01T15:38:12;16.10;99.90
20147;DHT22;10234;50.856;15.716;2022-09-01T15:40:39;16.00;99.90
20147;DHT22;10234;50.856;15.716;2022-09-01T15:43:07;16.20;99.90
20147;DHT22;10234;50.856;15.716;2022-09-01T15:45:34;15.90;99.90
20147;DHT22;10234;50.856;15.716;2022-09-01T15:48:01;15.90;99.90
20147;DHT22;10234;50.856;15.716;2022-09-01T15:50:29;15.90;99.90
20147;DHT22;10234;50.856;15.716;2022-09-01T15:52:58;15.90;99.90
20147;DHT22;10234;50.856;15.716;2022-09-01T15:55:28;15.90;99.90
20147;DHT22;10234;50.856;15.716;2022-09-01T15:57:55;15.90;99.90
20147;DHT22;10234;50.856;15.716;2022-09-01T16:00:24;15.90;99.90
20147;DHT22;10234;50.856;15.716;2022-09-01T16:02:51;15.80;99.90
20147;DHT22;10234;50.856;15.716;2022-09-01T16:05:20;15.80;99.90
20147;DHT22;10234;50.856;15.716;2022-09-01T16:07:49;15.80;99.90
20147;DHT22;10234;50.856;15.716;2022-09-01T16:10:16;15.80;99.90
20147;DHT22;10234;50.856;15.716;2022-09-01T16:12:44;15.60;99.90
20147;DHT22;10234;50.856;15.716;2022-09-01T16:15:15;15.20;99.90